Time;durP1;ratioP1;P1;durP2;ratioP2;P2;SDS_P1;SDS_P2;PMS_P1;PMS_P2;Temp;Humidity;BMP_temperature;BMP_pressure;BME280_temperature;BME280_humidity;BME280_pressure;Samples;Min_cycle;Max_cycle;Signal;HPM_P1;HPM_P2
2022/07/08 00:01:56;;;;;;;0.00;0.00;;;16.70;97.90;;;;;;4995025;28;20503;-72
2022/07/08 00:04:23;;;;;;;0.45;0.35;;;16.60;98.30;;;;;;4977639;28;20026;-72
2022/07/08 00:06:48;;;;;;;0.10;0.10;;;16.50;98.20;;;;;;4977621;28;20026;-72
2022/07/08 00:09:15;;;;;;;0.70;0.65;;;16.50;98.40;;;;;;4994412;28;20465;-72
2022/07/08 00:11:41;;;;;;;1.15;0.85;;;16.40;98.70;;;;;;4977110;28;20022;-72
2022/07/08 00:14:09;;;;;;;0.00;0.00;;;16.40;98.60;;;;;;4994476;28;20544;-72
2022/07/08 00:16:40;;;;;;;0.00;0.00;;;16.40;98.40;;;;;;4977161;28;20034;-72
2022/07/08 00:19:07;;;;;;;0.00;0.00;;;16.40;98.50;;;;;;4978025;28;20061;-71
2022/07/08 00:21:33;;;;;;;0.25;0.20;;;16.30;98.60;;;;;;4993345;28;20077;-72
2022/07/08 00:24:00;;;;;;;0.00;0.00;;;16.30;98.50;;;;;;4977023;28;20034;-72
2022/07/08 00:26:26;;;;;;;0.30;0.30;;;16.20;98.90;;;;;;4976974;28;20030;-72
2022/07/08 00:28:51;;;;;;;0.20;0.20;;;16.20;98.60;;;;;;4994286;28;20482;-72
2022/07/08 00:31:17;;;;;;;0.00;0.00;;;16.20;98.80;;;;;;4977340;28;20040;-72
2022/07/08 00:33:43;;;;;;;0.82;0.75;;;16.10;98.80;;;;;;4993203;28;20030;-71
2022/07/08 00:36:09;;;;;;;1.08;0.70;;;16.10;99.00;;;;;;4977027;28;20646;-72
2022/07/08 00:38:34;;;;;;;0.10;0.10;;;16.10;98.80;;;;;;4994388;28;20034;-72
2022/07/08 00:41:00;;;;;;;0.20;0.17;;;16.10;98.90;;;;;;4994640;28;20113;-72
2022/07/08 00:43:37;;;;;;;0.93;0.85;;;16.10;98.60;;;;;;4976992;28;20026;-72
2022/07/08 00:46:04;;;;;;;0.00;0.00;;;16.10;98.70;;;;;;4994633;28;20054;-72
2022/07/08 00:48:30;;;;;;;0.40;0.40;;;16.10;98.70;;;;;;4994404;28;20026;-72
2022/07/08 00:51:03;;;;;;;0.10;0.10;;;16.10;98.80;;;;;;4994207;28;20023;-71
2022/07/08 00:53:31;;;;;;;1.40;1.25;;;16.10;99.00;;;;;;4976026;28;20053;-71
2022/07/08 00:55:58;;;;;;;0.43;0.43;;;16.00;99.10;;;;;;4976816;28;20031;-71
2022/07/08 00:58:25;;;;;;;0.00;0.00;;;15.90;99.30;;;;;;4976457;28;20116;-71
2022/07/08 01:00:53;;;;;;;0.00;0.00;;;15.90;99.40;;;;;;4993508;28;20033;-71
2022/07/08 01:03:20;;;;;;;0.05;0.05;;;15.80;99.60;;;;;;4976463;28;20025;-71
2022/07/08 01:05:46;;;;;;;0.03;0.03;;;15.80;99.70;;;;;;4994056;28;20037;-71
2022/07/08 01:08:13;;;;;;;0.00;0.00;;;15.80;99.70;;;;;;4995481;28;20042;-71
2022/07/08 01:10:40;;;;;;;1.35;0.98;;;15.80;99.70;;;;;;4978930;28;20030;-71
2022/07/08 01:13:06;;;;;;;0.13;0.13;;;15.70;99.80;;;;;;4995709;28;20097;-71
2022/07/08 01:15:33;;;;;;;0.25;0.25;;;15.60;99.90;;;;;;4989595;28;20028;-72
2022/07/08 01:17:58;;;;;;;0.08;0.08;;;15.50;99.90;;;;;;4993176;28;20030;-71
2022/07/08 01:20:25;;;;;;;0.85;0.82;;;15.40;99.90;;;;;;4992306;28;20038;-72
2022/07/08 01:22:51;;;;;;;0.20;0.20;;;15.40;99.90;;;;;;4993137;28;20022;-71
2022/07/08 01:25:17;;;;;;;0.00;0.00;;;15.50;99.90;;;;;;4995248;28;20485;-71
2022/07/08 01:27:43;;;;;;;0.20;0.20;;;15.40;99.90;;;;;;4995599;28;20034;-71
2022/07/08 01:30:10;;;;;;;0.00;0.00;;;15.30;99.90;;;;;;5012959;28;20040;-71
2022/07/08 01:32:42;;;;;;;0.10;0.10;;;15.30;99.90;;;;;;5012688;28;20478;-71
2022/07/08 01:35:09;;;;;;;0.00;0.00;;;15.20;99.90;;;;;;4995826;28;20026;-71
2022/07/08 01:37:35;;;;;;;0.80;0.80;;;15.10;99.90;;;;;;4995388;28;20033;-71
2022/07/08 01:40:01;;;;;;;0.35;0.35;;;15.10;99.90;;;;;;5012241;28;20125;-70
2022/07/08 01:42:27;;;;;;;0.20;0.20;;;15.00;99.90;;;;;;4995750;28;20069;-71
2022/07/08 01:44:54;;;;;;;0.05;0.05;;;15.10;99.90;;;;;;4992929;28;20054;-71
2022/07/08 01:47:19;;;;;;;0.00;0.00;;;15.10;99.90;;;;;;4991981;28;20023;-71
2022/07/08 01:49:45;;;;;;;0.00;0.00;;;15.20;99.90;;;;;;4992898;28;20100;-71
2022/07/08 01:52:12;;;;;;;0.30;0.30;;;15.20;99.90;;;;;;4992571;28;20137;-71
2022/07/08 01:54:38;;;;;;;0.38;0.38;;;15.10;99.90;;;;;;4991671;28;20092;-71
2022/07/08 01:57:16;;;;;;;0.38;0.38;;;15.00;99.90;;;;;;4993067;28;20042;-71
2022/07/08 01:59:44;;;;;;;0.00;0.00;;;14.90;99.90;;;;;;4991583;28;20034;-71
2022/07/08 02:02:12;;;;;;;0.10;0.10;;;14.80;99.90;;;;;;4992619;28;20074;-71
2022/07/08 02:04:38;;;;;;;0.43;0.30;;;14.70;99.90;;;;;;4992245;28;20029;-70
2022/07/08 02:07:04;;;;;;;0.00;0.00;;;14.60;99.90;;;;;;4990519;28;20121;-71
2022/07/08 02:09:30;;;;;;;0.22;0.22;;;14.60;99.90;;;;;;4991094;28;20030;-71
2022/07/08 02:14:41;;;;;;;0.00;0.00;;;14.50;99.90;;;;;;4992734;28;20042;-71
2022/07/08 02:17:08;;;;;;;0.00;0.00;;;14.50;99.90;;;;;;4994480;28;20079;-70
2022/07/08 02:19:34;;;;;;;0.00;0.00;;;14.50;99.90;;;;;;4994402;28;20117;-70
2022/07/08 02:22:01;;;;;;;0.00;0.00;;;14.50;99.90;;;;;;5012257;28;20482;-71
2022/07/08 02:24:27;;;;;;;1.50;1.00;;;14.50;99.90;;;;;;4994476;28;20037;-70
2022/07/08 02:26:52;;;;;;;0.20;0.20;;;14.50;99.90;;;;;;5011921;28;20029;-70
2022/07/08 02:29:18;;;;;;;0.47;0.40;;;14.50;99.90;;;;;;5011697;28;20065;-71
2022/07/08 02:31:44;;;;;;;0.10;0.10;;;14.50;99.90;;;;;;5011626;28;20026;-70
2022/07/08 02:34:10;;;;;;;0.00;0.00;;;14.50;99.90;;;;;;5011616;28;20045;-71
2022/07/08 02:36:36;;;;;;;0.00;0.00;;;14.40;99.90;;;;;;4994092;28;20034;-71
2022/07/08 02:39:03;;;;;;;0.10;0.10;;;14.40;99.90;;;;;;5011390;28;20057;-71
2022/07/08 02:41:31;;;;;;;0.00;0.00;;;14.30;99.90;;;;;;4994290;28;20049;-71
2022/07/08 02:43:57;;;;;;;1.13;0.80;;;14.30;99.90;;;;;;5011458;28;20091;-70
2022/07/08 02:46:23;;;;;;;0.00;0.00;;;14.20;99.90;;;;;;5011883;28;20473;-71
2022/07/08 02:48:49;;;;;;;0.25;0.25;;;14.20;99.90;;;;;;5011482;28;20029;-71
2022/07/08 02:51:14;;;;;;;0.03;0.03;;;14.10;99.90;;;;;;4994140;28;20065;-71
2022/07/08 02:53:40;;;;;;;0.15;0.13;;;14.10;99.90;;;;;;4993605;28;20116;-71
2022/07/08 02:56:06;;;;;;;0.05;0.03;;;14.20;99.90;;;;;;4994092;28;20072;-71
2022/07/08 02:58:32;;;;;;;0.10;0.00;;;14.20;99.90;;;;;;5011527;28;20029;-71
2022/07/08 03:00:58;;;;;;;0.10;0.10;;;14.20;99.90;;;;;;5011359;28;20033;-71
2022/07/08 03:03:24;;;;;;;0.00;0.00;;;14.20;99.90;;;;;;5011506;28;20113;-72
2022/07/08 03:05:49;;;;;;;0.00;0.00;;;14.10;99.90;;;;;;4993890;28;20109;-71
2022/07/08 03:08:15;;;;;;;0.05;0.05;;;14.10;99.90;;;;;;5011089;28;20030;-72
2022/07/08 03:10:42;;;;;;;1.42;1.00;;;14.20;99.90;;;;;;5011056;28;20029;-71
2022/07/08 03:13:07;;;;;;;0.00;0.00;;;14.20;99.90;;;;;;5009949;28;20030;-72
2022/07/08 03:15:33;;;;;;;0.00;0.00;;;14.20;99.90;;;;;;5002929;28;20398;-71
2022/07/08 03:18:00;;;;;;;0.20;0.20;;;14.30;99.90;;;;;;4994790;28;20022;-71
2022/07/08 03:20:26;;;;;;;0.08;0.08;;;14.10;99.90;;;;;;4995711;28;20045;-72
2022/07/08 03:22:53;;;;;;;0.00;0.00;;;14.10;99.90;;;;;;4994354;28;20034;-71
2022/07/08 03:25:19;;;;;;;0.15;0.10;;;14.00;99.90;;;;;;4994327;28;20399;-72
2022/07/08 03:27:44;;;;;;;0.22;0.20;;;14.00;99.90;;;;;;4995503;28;20030;-72
2022/07/08 03:30:10;;;;;;;0.52;0.52;;;14.00;99.90;;;;;;4995257;28;20030;-71
2022/07/08 03:32:36;;;;;;;0.10;0.10;;;13.90;99.90;;;;;;4995526;28;20062;-71
2022/07/08 03:35:02;;;;;;;0.00;0.00;;;13.90;99.90;;;;;;4994258;28;20030;-72
2022/07/08 03:37:28;;;;;;;0.30;0.22;;;13.90;99.90;;;;;;4994384;28;20093;-72
2022/07/08 03:39:54;;;;;;;0.00;0.00;;;13.80;99.90;;;;;;4995106;28;20038;-72
2022/07/08 03:42:20;;;;;;;0.00;0.00;;;13.80;99.90;;;;;;4995283;28;20118;-72
2022/07/08 03:44:47;;;;;;;0.00;0.00;;;13.80;99.90;;;;;;4993810;28;20025;-72
2022/07/08 03:47:15;;;;;;;0.22;0.22;;;13.80;99.90;;;;;;4977636;28;20033;-72
2022/07/08 03:49:41;;;;;;;0.65;0.65;;;13.80;99.90;;;;;;4993637;28;20038;-72
2022/07/08 03:52:07;;;;;;;0.00;0.00;;;13.80;99.90;;;;;;4995268;28;20033;-72
2022/07/08 03:54:32;;;;;;;3.97;1.15;;;13.80;99.90;;;;;;4993600;28;20042;-72
2022/07/08 03:56:58;;;;;;;0.00;0.00;;;13.70;99.90;;;;;;4993821;28;20038;-72
2022/07/08 03:59:24;;;;;;;0.20;0.20;;;13.70;99.90;;;;;;4994518;28;20375;-72
2022/07/08 04:01:50;;;;;;;0.00;0.00;;;13.60;99.90;;;;;;4995010;28;20026;-72
2022/07/08 04:04:18;;;;;;;0.00;0.00;;;13.50;99.90;;;;;;4998931;28;20029;-70
2022/07/08 04:06:44;;;;;;;0.00;0.00;;;13.50;99.90;;;;;;5003869;28;20105;-71
2022/07/08 04:09:10;;;;;;;0.00;0.00;;;13.40;99.90;;;;;;4987204;23;20842;-74
2022/07/08 04:11:37;;;;;;;0.10;0.10;;;13.30;99.90;;;;;;4967148;28;20101;-75
2022/07/08 04:14:02;;;;;;;0.00;0.00;;;13.30;99.90;;;;;;4998611;28;20381;-76
2022/07/08 04:16:28;;;;;;;0.00;0.00;;;13.40;99.90;;;;;;4991977;28;20034;-74
2022/07/08 04:18:54;;;;;;;2.53;2.22;;;13.40;99.90;;;;;;4980528;28;20030;-75
2022/07/08 04:21:19;;;;;;;0.00;0.00;;;13.40;99.90;;;;;;4991327;28;20022;-75
2022/07/08 04:23:45;;;;;;;11.10;8.45;;;13.40;99.90;;;;;;5008141;28;20025;-76
2022/07/08 04:26:11;;;;;;;8.63;7.80;;;13.40;99.90;;;;;;4994152;28;20112;-75
2022/07/08 04:28:36;;;;;;;5.28;3.92;;;13.50;99.90;;;;;;5008289;28;20034;-76
2022/07/08 04:31:02;;;;;;;2.35;2.13;;;13.50;99.90;;;;;;4992820;28;20534;-76
2022/07/08 04:33:31;;;;;;;0.25;0.25;;;13.60;99.90;;;;;;4993797;28;20034;-76
2022/07/08 04:35:56;;;;;;;0.15;0.15;;;13.60;99.90;;;;;;4993763;28;20132;-76
2022/07/08 04:38:22;;;;;;;0.10;0.10;;;13.70;99.90;;;;;;4993763;28;20542;-75
2022/07/08 04:40:48;;;;;;;0.05;0.05;;;13.70;99.90;;;;;;4992115;28;20030;-74
2022/07/08 04:43:14;;;;;;;0.30;0.25;;;13.80;99.90;;;;;;4991668;28;20546;-77
2022/07/08 04:45:42;;;;;;;0.00;0.00;;;13.80;99.90;;;;;;4992402;28;20054;-76
2022/07/08 04:48:08;;;;;;;5.07;1.65;;;13.90;99.90;;;;;;4993720;28;20023;-76
2022/07/08 04:50:33;;;;;;;0.63;0.63;;;13.90;99.90;;;;;;4993107;28;20026;-77
2022/07/08 04:53:02;;;;;;;0.88;0.43;;;14.00;99.90;;;;;;4976209;28;20084;-76
2022/07/08 04:55:27;;;;;;;0.00;0.00;;;14.00;99.90;;;;;;4993901;28;20058;-75
2022/07/08 04:57:59;;;;;;;0.10;0.10;;;14.00;99.90;;;;;;5008804;28;20425;-77
2022/07/08 05:00:25;;;;;;;0.00;0.00;;;14.00;99.90;;;;;;4993461;28;20058;-76
2022/07/08 05:02:51;;;;;;;0.20;0.20;;;14.10;99.90;;;;;;4992221;28;20121;-78
2022/07/08 05:05:18;;;;;;;13.75;1.15;;;14.10;99.90;;;;;;4993448;28;20110;-76
2022/07/08 05:07:44;;;;;;;0.47;0.47;;;14.20;99.90;;;;;;4990765;28;20034;-77
2022/07/08 05:10:09;;;;;;;0.00;0.00;;;14.30;99.90;;;;;;4952749;28;20035;-77
2022/07/08 05:12:35;;;;;;;3.35;0.98;;;14.30;99.90;;;;;;4970551;28;20058;-77
2022/07/08 05:15:01;;;;;;;0.70;0.65;;;14.50;99.90;;;;;;4984771;28;20038;-77
2022/07/08 05:17:27;;;;;;;0.00;0.00;;;14.50;99.90;;;;;;4993356;28;20045;-77
2022/07/08 05:19:52;;;;;;;0.15;0.15;;;14.50;99.90;;;;;;4992604;28;20526;-77
2022/07/08 05:22:18;;;;;;;0.00;0.00;;;14.60;99.90;;;;;;4993457;28;20026;-74
2022/07/08 05:24:44;;;;;;;0.08;0.08;;;14.60;99.90;;;;;;4995927;28;20034;-78
2022/07/08 05:27:12;;;;;;;3.00;0.77;;;14.70;99.90;;;;;;4993766;28;20037;-78
2022/07/08 05:29:38;;;;;;;0.38;0.20;;;14.80;99.90;;;;;;4992979;28;20030;-78
2022/07/08 05:32:04;;;;;;;0.20;0.10;;;14.90;99.90;;;;;;4993344;28;20041;-78
2022/07/08 05:34:29;;;;;;;0.00;0.00;;;15.00;99.90;;;;;;4992839;28;20081;-78
2022/07/08 05:36:55;;;;;;;0.00;0.00;;;15.10;99.90;;;;;;4992686;28;20450;-79
2022/07/08 05:39:21;;;;;;;0.00;0.00;;;15.10;99.90;;;;;;4992428;28;20383;-78
2022/07/08 05:41:47;;;;;;;1.10;0.95;;;15.20;99.90;;;;;;4993099;28;20045;-78
2022/07/08 05:44:13;;;;;;;0.15;0.03;;;15.20;99.90;;;;;;4995186;28;20102;-78
2022/07/08 05:46:39;;;;;;;0.00;0.00;;;15.30;99.90;;;;;;4993724;28;20034;-76
2022/07/08 05:49:04;;;;;;;2.25;0.32;;;15.30;99.90;;;;;;4990831;28;20030;-78
2022/07/08 05:51:30;;;;;;;0.52;0.43;;;15.40;99.90;;;;;;4992879;28;20069;-75
2022/07/08 05:53:56;;;;;;;0.03;0.03;;;15.40;99.90;;;;;;4990872;28;20027;-75
2022/07/08 05:56:22;;;;;;;0.00;0.00;;;15.40;99.90;;;;;;4992650;28;20053;-74
2022/07/08 05:58:48;;;;;;;0.25;0.25;;;15.40;99.90;;;;;;4993579;28;20471;-76
2022/07/08 06:01:14;;;;;;;0.55;0.35;;;15.40;99.90;;;;;;4986324;28;20023;-76
2022/07/08 06:03:39;;;;;;;0.63;0.63;;;15.50;99.90;;;;;;4955564;28;20022;-75
2022/07/08 06:06:06;;;;;;;0.00;0.00;;;15.50;99.90;;;;;;4973039;28;20058;-78
2022/07/08 06:08:31;;;;;;;0.77;0.28;;;15.60;99.90;;;;;;4973020;28;20077;-78
2022/07/08 06:10:58;;;;;;;0.00;0.00;;;15.70;99.90;;;;;;4969684;28;20038;-78
2022/07/08 06:13:24;;;;;;;0.25;0.10;;;15.80;99.90;;;;;;4990420;28;20034;-78
2022/07/08 06:15:50;;;;;;;0.10;0.10;;;15.80;99.90;;;;;;4992209;28;20037;-78
2022/07/08 06:18:15;;;;;;;0.43;0.30;;;16.00;99.90;;;;;;4997020;28;20034;-78
2022/07/08 06:20:41;;;;;;;0.00;0.00;;;16.10;99.90;;;;;;4972539;28;20037;-77
2022/07/08 06:23:07;;;;;;;0.00;0.00;;;16.20;99.90;;;;;;4972704;28;20031;-78
2022/07/08 06:25:33;;;;;;;0.00;0.00;;;16.30;99.90;;;;;;4970440;28;20081;-78
2022/07/08 06:27:58;;;;;;;0.90;0.90;;;16.30;99.90;;;;;;4972317;28;20030;-78
2022/07/08 06:30:24;;;;;;;0.00;0.00;;;16.30;99.90;;;;;;4972654;28;20447;-77
2022/07/08 06:32:50;;;;;;;0.10;0.10;;;16.40;99.90;;;;;;4972450;28;20402;-77
2022/07/08 06:35:16;;;;;;;0.00;0.00;;;16.60;99.90;;;;;;4971242;28;20038;-77
2022/07/08 06:37:42;;;;;;;0.10;0.10;;;16.70;99.90;;;;;;4971099;28;20035;-71
2022/07/08 06:40:08;;;;;;;1.10;0.63;;;16.90;99.90;;;;;;4971036;28;20039;-73
2022/07/08 06:42:37;;;;;;;0.00;0.00;;;16.90;99.90;;;;;;4983392;28;20061;-72
2022/07/08 06:45:04;;;;;;;0.00;0.00;;;17.10;99.90;;;;;;4992175;28;20463;-73
2022/07/08 06:47:29;;;;;;;0.38;0.38;;;17.20;99.90;;;;;;4991822;28;20034;-72
2022/07/08 06:49:55;;;;;;;0.08;0.08;;;17.20;99.90;;;;;;4991492;28;20072;-73
2022/07/08 06:52:21;;;;;;;0.00;0.00;;;17.20;99.70;;;;;;4989847;28;20808;-73
2022/07/08 06:54:47;;;;;;;0.52;0.52;;;17.40;99.70;;;;;;4991894;28;20034;-75
2022/07/08 06:57:14;;;;;;;0.20;0.20;;;17.40;99.30;;;;;;4991749;28;20441;-76
2022/07/08 06:59:41;;;;;;;0.00;0.00;;;17.40;99.40;;;;;;4989938;28;20035;-73
2022/07/08 07:02:08;;;;;;;3.63;0.32;;;17.50;99.50;;;;;;4991725;28;20041;-73
2022/07/08 07:04:35;;;;;;;0.00;0.00;;;17.60;98.90;;;;;;4990750;28;20117;-73
2022/07/08 07:07:00;;;;;;;0.00;0.00;;;17.50;98.30;;;;;;5006468;28;20069;-72
2022/07/08 07:09:26;;;;;;;0.00;0.00;;;17.50;97.90;;;;;;4989812;28;20140;-72
2022/07/08 07:11:52;;;;;;;0.20;0.20;;;17.70;98.20;;;;;;4991657;28;20026;-72
2022/07/08 07:14:20;;;;;;;0.32;0.32;;;17.50;97.70;;;;;;4991292;28;20414;-78
2022/07/08 07:16:46;;;;;;;0.20;0.17;;;17.70;98.00;;;;;;4991580;28;20066;-75
2022/07/08 07:19:11;;;;;;;0.00;0.00;;;17.90;96.80;;;;;;4991606;28;20549;-75
2022/07/08 07:21:37;;;;;;;0.32;0.32;;;18.00;97.00;;;;;;4991581;28;20034;-74
2022/07/08 07:24:03;;;;;;;0.00;0.00;;;17.70;97.20;;;;;;4991313;28;20023;-75
2022/07/08 07:26:29;;;;;;;0.10;0.10;;;17.80;97.20;;;;;;4991734;28;20042;-74
2022/07/08 07:28:55;;;;;;;0.00;0.00;;;17.90;96.60;;;;;;4991423;28;20034;-74
2022/07/08 07:31:21;;;;;;;0.00;0.00;;;18.00;96.70;;;;;;4991828;28;20076;-74
2022/07/08 07:33:47;;;;;;;0.22;0.22;;;17.90;96.20;;;;;;4991764;28;20038;-74
2022/07/08 07:36:13;;;;;;;0.13;0.10;;;18.20;95.50;;;;;;4991904;28;20061;-75
2022/07/08 07:38:39;;;;;;;0.00;0.00;;;18.30;94.70;;;;;;4991188;28;20034;-73
2022/07/08 07:41:05;;;;;;;0.00;0.00;;;17.90;94.80;;;;;;4991362;28;20098;-74
2022/07/08 07:43:30;;;;;;;0.00;0.00;;;18.10;95.70;;;;;;4990922;28;20026;-73
2022/07/08 07:45:56;;;;;;;0.00;0.00;;;18.20;95.80;;;;;;4991445;28;20097;-73
2022/07/08 07:48:22;;;;;;;0.35;0.35;;;18.40;95.10;;;;;;4991362;28;20101;-73
2022/07/08 07:50:48;;;;;;;0.00;0.00;;;18.50;94.80;;;;;;4990924;28;20134;-74
2022/07/08 07:53:13;;;;;;;0.10;0.10;;;18.30;94.80;;;;;;4990889;28;20030;-74
2022/07/08 07:55:39;;;;;;;0.00;0.00;;;18.60;94.80;;;;;;4991160;28;20474;-76
2022/07/08 07:58:05;;;;;;;0.10;0.10;;;18.80;94.10;;;;;;4991492;28;20034;-74
2022/07/08 08:00:30;;;;;;;0.00;0.00;;;18.90;94.00;;;;;;4971605;28;20062;-74
2022/07/08 08:02:57;;;;;;;0.00;0.00;;;18.90;93.30;;;;;;4970228;28;20026;-73
2022/07/08 08:05:22;;;;;;;0.00;0.00;;;18.80;93.30;;;;;;4994809;28;20026;-73
2022/07/08 08:07:48;;;;;;;0.00;0.00;;;19.00;93.40;;;;;;4988539;28;20386;-73
2022/07/08 08:10:14;;;;;;;0.00;0.00;;;19.30;93.50;;;;;;4980162;28;20085;-74
2022/07/08 08:12:41;;;;;;;0.10;0.10;;;19.50;93.10;;;;;;4987250;28;20038;-74
2022/07/08 08:15:08;;;;;;;0.20;0.20;;;19.20;92.20;;;;;;4980669;28;20033;-74
2022/07/08 08:17:39;;;;;;;0.20;0.20;;;19.50;92.70;;;;;;4978109;28;20031;-74
2022/07/08 08:20:07;;;;;;;0.00;0.00;;;19.40;92.50;;;;;;4980546;28;20035;-74
2022/07/08 08:22:33;;;;;;;0.00;0.00;;;19.40;92.60;;;;;;4977703;28;20038;-74
2022/07/08 08:24:59;;;;;;;0.45;0.45;;;19.70;92.00;;;;;;4974435;28;20042;-73
2022/07/08 08:27:24;;;;;;;0.00;0.00;;;19.60;91.50;;;;;;4977754;28;20049;-73
2022/07/08 08:29:50;;;;;;;0.55;0.55;;;19.60;91.90;;;;;;4982757;28;20506;-74
2022/07/08 08:32:16;;;;;;;0.10;0.10;;;19.40;92.00;;;;;;4991607;28;20045;-73
2022/07/08 08:34:41;;;;;;;4.38;0.35;;;19.30;91.60;;;;;;4979577;28;20038;-74
2022/07/08 08:37:07;;;;;;;0.00;0.00;;;19.30;92.10;;;;;;4983992;28;20397;-73
2022/07/08 08:39:33;;;;;;;0.28;0.22;;;19.10;92.00;;;;;;4981306;28;20045;-62
2022/07/08 08:41:59;;;;;;;0.00;0.00;;;18.60;92.00;;;;;;4974186;28;20034;-68
2022/07/08 08:44:26;;;;;;;0.00;0.00;;;18.80;92.30;;;;;;4984289;28;20114;-68
2022/07/08 08:46:53;;;;;;;0.00;0.00;;;19.00;92.30;;;;;;4974302;28;20030;-69
2022/07/08 08:49:20;;;;;;;0.20;0.20;;;18.80;91.80;;;;;;4979865;28;20062;-68
2022/07/08 08:51:50;;;;;;;0.00;0.00;;;18.90;92.40;;;;;;4973908;28;20126;-68
2022/07/08 08:54:18;;;;;;;3.72;0.90;;;19.10;92.00;;;;;;4985272;28;20035;-68
2022/07/08 08:56:46;;;;;;;0.00;0.00;;;19.20;91.70;;;;;;4985856;28;20102;-68
2022/07/08 08:59:14;;;;;;;0.43;0.35;;;19.30;91.60;;;;;;4980691;28;20541;-68
2022/07/08 09:01:41;;;;;;;1.08;0.38;;;19.40;92.10;;;;;;4993143;28;20108;-68
2022/07/08 09:04:10;;;;;;;0.00;0.00;;;19.50;91.00;;;;;;4988403;28;20045;-68
2022/07/08 09:06:38;;;;;;;2.47;0.55;;;19.20;90.80;;;;;;4989865;28;20458;-68
2022/07/08 09:09:04;;;;;;;0.00;0.00;;;19.00;91.50;;;;;;4984866;28;20509;-68
2022/07/08 09:11:32;;;;;;;0.08;0.08;;;19.30;91.90;;;;;;4976526;28;20038;-68
2022/07/08 09:14:21;;;;;;;0.00;0.00;;;19.60;91.40;;;;;;4983459;28;20030;-68
2022/07/08 09:17:10;;;;;;;0.00;0.00;;;19.90;91.00;;;;;;4972325;28;20066;-68
2022/07/08 09:19:47;;;;;;;0.00;0.00;;;19.60;90.60;;;;;;4974473;28;20565;-68
2022/07/08 09:22:13;;;;;;;0.20;0.20;;;19.80;90.50;;;;;;4990148;28;20387;-68
2022/07/08 09:24:39;;;;;;;0.80;0.43;;;19.90;90.90;;;;;;4981893;28;20029;-68
2022/07/08 09:27:10;;;;;;;0.00;0.00;;;20.20;90.50;;;;;;4990927;28;20061;-68
2022/07/08 09:29:40;;;;;;;;;;;20.60;90.20;;;;;;4981677;28;20023;-68
2022/07/08 09:32:15;;;;;;;2.17;1.00;;;20.70;89.10;;;;;;4990688;28;19913;-68
2022/07/08 09:34:42;;;;;;;0.90;0.45;;;20.60;87.00;;;;;;4983047;28;20045;-68
2022/07/08 09:37:17;;;;;;;0.60;0.40;;;20.80;87.40;;;;;;4972983;28;20070;-67
2022/07/08 09:39:44;;;;;;;0.00;0.00;;;20.50;88.40;;;;;;4986317;28;20034;-67
2022/07/08 09:42:13;;;;;;;0.65;0.35;;;20.20;88.30;;;;;;4973688;28;20019;-68
2022/07/08 09:44:39;;;;;;;0.00;0.00;;;20.40;87.40;;;;;;4983210;28;20383;-68
2022/07/08 09:47:14;;;;;;;0.00;0.00;;;20.40;88.30;;;;;;4972287;28;20535;-68
2022/07/08 09:49:47;;;;;;;0.10;0.10;;;20.20;88.90;;;;;;4982545;28;20042;-68
2022/07/08 09:52:25;;;;;;;2.53;1.17;;;20.30;89.30;;;;;;4972778;28;20069;-68
2022/07/08 09:55:02;;;;;;;0.00;0.00;;;20.10;88.90;;;;;;4983723;28;20490;-68
2022/07/08 09:57:31;;;;;;;1.02;0.43;;;20.30;87.80;;;;;;4988365;28;20085;-68
2022/07/08 09:59:57;;;;;;;0.00;0.00;;;20.50;87.70;;;;;;4967019;28;20113;-65
2022/07/08 10:02:24;;;;;;;1.15;1.05;;;20.50;87.40;;;;;;4991968;28;20077;-66
2022/07/08 10:04:51;;;;;;;0.00;0.00;;;20.30;87.30;;;;;;4982371;28;20598;-67
2022/07/08 10:07:17;;;;;;;0.98;0.52;;;20.30;88.80;;;;;;4990606;28;20026;-67
2022/07/08 10:12:18;;;;;;;0.38;0.38;;;20.40;87.00;;;;;;4988482;28;20054;-59
2022/07/08 10:14:48;;;;;;;0.38;0.17;;;20.50;85.90;;;;;;4988158;28;20129;-60
2022/07/08 10:17:18;;;;;;;0.00;0.00;;;20.60;87.50;;;;;;4992131;28;20030;-60
2022/07/08 10:19:45;;;;;;;0.10;0.10;;;20.60;86.80;;;;;;4998844;28;20041;-59
2022/07/08 10:22:14;;;;;;;1.42;0.93;;;20.80;86.90;;;;;;4975729;28;20034;-73
2022/07/08 10:24:42;;;;;;;0.00;0.00;;;21.20;87.20;;;;;;4983868;28;20030;-72
2022/07/08 10:27:10;;;;;;;0.00;0.00;;;21.40;86.10;;;;;;4974701;28;20417;-73
2022/07/08 10:29:39;;;;;;;0.17;0.17;;;21.40;83.80;;;;;;5001789;28;20112;-73
2022/07/08 10:32:27;;;;;;;0.22;0.13;;;21.30;84.80;;;;;;4991260;28;20023;-73
2022/07/08 10:35:20;;;;;;;0.15;0.15;;;21.20;84.80;;;;;;4977404;28;20108;-73
2022/07/08 10:37:59;;;;;;;0.00;0.00;;;20.60;85.90;;;;;;4980515;28;20152;-74
2022/07/08 10:40:50;;;;;;;0.00;0.00;;;20.70;85.60;;;;;;4994957;28;20045;-74
2022/07/08 10:43:18;;;;;;;0.22;0.22;;;20.60;87.00;;;;;;4998757;28;20068;-74
2022/07/08 10:46:07;;;;;;;0.00;0.00;;;20.90;85.80;;;;;;4991279;28;20034;-75
2022/07/08 10:48:45;;;;;;;0.00;0.00;;;21.10;84.40;;;;;;4996178;28;20088;-76
2022/07/08 10:51:19;;;;;;;2.72;0.52;;;21.30;84.30;;;;;;4975832;28;20113;-74
2022/07/08 10:53:52;;;;;;;0.00;0.00;;;21.20;82.60;;;;;;5000644;28;20058;-74
2022/07/08 10:56:50;;;;;;;0.10;0.10;;;21.30;83.60;;;;;;4975242;28;20347;-74
2022/07/08 10:59:22;;;;;;;0.00;0.00;;;21.60;83.50;;;;;;4984789;28;20124;-74
2022/07/08 11:02:03;;;;;;;0.10;0.10;;;21.60;83.00;;;;;;4973584;28;20541;-60
2022/07/08 11:04:41;;;;;;;0.55;0.40;;;21.90;85.30;;;;;;4991372;28;20121;-61
2022/07/08 11:07:28;;;;;;;0.00;0.00;;;22.10;83.40;;;;;;4989782;28;20029;-59
2022/07/08 11:10:05;;;;;;;0.20;0.20;;;22.30;81.60;;;;;;5001363;28;20026;-59
2022/07/08 11:12:41;;;;;;;0.00;0.00;;;22.60;81.10;;;;;;5003658;28;20034;-59
2022/07/08 11:15:19;;;;;;;0.10;0.10;;;22.70;80.90;;;;;;4997420;28;20042;-59
2022/07/08 11:17:47;;;;;;;0.00;0.00;;;22.40;79.70;;;;;;4997330;28;20026;-58
2022/07/08 11:20:15;;;;;;;0.00;0.00;;;22.60;79.70;;;;;;4978700;28;20033;-59
2022/07/08 11:22:44;;;;;;;0.00;0.00;;;22.30;78.80;;;;;;4979142;28;20026;-59
2022/07/08 11:25:16;;;;;;;5.90;1.35;;;22.40;79.90;;;;;;4978876;28;20030;-59
2022/07/08 11:27:43;;;;;;;0.10;0.10;;;22.10;78.90;;;;;;4996702;28;20540;-59
2022/07/08 11:30:16;;;;;;;0.00;0.00;;;22.30;80.50;;;;;;4996865;28;20529;-60
2022/07/08 11:32:47;;;;;;;0.00;0.00;;;22.50;78.80;;;;;;4977615;28;20084;-60
2022/07/08 11:35:13;;;;;;;0.00;0.00;;;22.70;79.10;;;;;;4986462;28;20061;-60
2022/07/08 11:37:45;;;;;;;1.65;1.48;;;22.70;78.40;;;;;;5006302;28;20049;-60
2022/07/08 11:40:15;;;;;;;0.60;0.45;;;22.60;79.80;;;;;;5007662;28;20417;-60
2022/07/08 11:42:42;;;;;;;0.10;0.10;;;23.00;78.80;;;;;;5007723;28;20140;-61
2022/07/08 11:45:11;;;;;;;0.13;0.13;;;23.30;76.90;;;;;;4983038;28;20027;-60
2022/07/08 11:47:37;;;;;;;0.32;0.32;;;23.20;77.60;;;;;;4982612;28;20041;-59
2022/07/08 11:50:07;;;;;;;8.48;0.82;;;23.50;76.40;;;;;;4987725;28;20042;-59
2022/07/08 11:52:32;;;;;;;0.00;0.00;;;23.80;77.40;;;;;;5010113;28;20065;-59
2022/07/08 11:54:58;;;;;;;0.00;0.00;;;23.80;74.80;;;;;;4980970;28;20061;-60
2022/07/08 11:57:25;;;;;;;0.03;0.03;;;23.90;74.90;;;;;;4997773;28;20367;-60
2022/07/08 11:59:51;;;;;;;0.32;0.30;;;23.90;74.50;;;;;;5002550;28;20068;-60
2022/07/08 12:02:23;;;;;;;0.00;0.00;;;24.00;75.10;;;;;;4997382;28;20756;-59
2022/07/08 12:04:51;;;;;;;0.00;0.00;;;24.10;74.50;;;;;;4963662;28;20105;-59
2022/07/08 12:07:28;;;;;;;0.30;0.30;;;24.20;74.50;;;;;;4999048;28;20494;-59
2022/07/08 12:10:04;;;;;;;1.08;0.55;;;23.90;74.70;;;;;;4996343;28;20835;-59
2022/07/08 12:12:32;;;;;;;0.00;0.00;;;24.00;73.50;;;;;;4996911;28;20037;-60
2022/07/08 12:15:14;;;;;;;0.00;0.00;;;24.00;74.60;;;;;;5010089;28;20027;-60
2022/07/08 12:17:40;;;;;;;0.00;0.00;;;24.30;74.90;;;;;;5006990;28;20128;-60
2022/07/08 12:20:07;;;;;;;0.08;0.00;;;24.60;73.70;;;;;;4975016;28;20073;-60
2022/07/08 12:22:48;;;;;;;0.00;0.00;;;24.50;73.20;;;;;;5001483;28;20109;-59
2022/07/08 12:25:17;;;;;;;0.00;0.00;;;24.40;74.10;;;;;;4981984;28;20028;-59
2022/07/08 12:27:44;;;;;;;0.10;0.10;;;24.10;74.70;;;;;;4999297;28;20108;-59
2022/07/08 12:30:11;;;;;;;0.00;0.00;;;24.40;74.00;;;;;;5000717;28;20037;-61
2022/07/08 12:32:47;;;;;;;0.00;0.00;;;24.50;73.90;;;;;;4987262;28;20037;-61
2022/07/08 12:35:13;;;;;;;0.40;0.40;;;24.30;74.40;;;;;;5005206;28;20061;-60
2022/07/08 12:37:39;;;;;;;0.10;0.08;;;24.10;73.40;;;;;;4978899;28;20038;-61
2022/07/08 12:40:41;;;;;;;0.52;0.22;;;24.20;75.90;;;;;;5001577;28;20054;-61
2022/07/08 12:43:11;;;;;;;0.10;0.00;;;24.20;75.50;;;;;;4985044;28;20029;-60
2022/07/08 12:45:37;;;;;;;2.88;0.10;;;24.10;75.00;;;;;;5000752;28;20464;-61
2022/07/08 12:48:03;;;;;;;0.00;0.00;;;24.30;75.40;;;;;;4979233;28;20080;-60
2022/07/08 12:50:34;;;;;;;0.00;0.00;;;24.80;74.50;;;;;;4999869;28;20502;-60
2022/07/08 12:53:01;;;;;;;15.07;0.55;;;25.20;72.90;;;;;;4975676;28;20475;-60
2022/07/08 12:55:27;;;;;;;0.15;0.13;;;25.40;71.50;;;;;;4987271;28;20042;-60
2022/07/08 12:57:53;;;;;;;0.10;0.10;;;25.30;71.90;;;;;;4993881;28;20034;-61